Time;durP1;ratioP1;P1;durP2;ratioP2;P2;SDS_P1;SDS_P2;PMS_P1;PMS_P2;Temp;Humidity;BMP_temperature;BMP_pressure;BME280_temperature;BME280_humidity;BME280_pressure;Samples;Min_cycle;Max_cycle;Signal;HPM_P1;HPM_P2
2023/07/27 00:01:41;;;;;;;;;;;;;;;;;;5133359;27;19975;-72
2023/07/27 00:04:08;;;;;;;;;;;;;;;;;;5131852;27;19970;-72
2023/07/27 00:06:35;;;;;;;;;;;;;;;;;;5133693;27;20018;-72
2023/07/27 00:09:02;;;;;;;;;;;;;;;;;;5133152;27;19924;-72
2023/07/27 00:11:31;;;;;;;;;;;;;;;;;;5112295;28;20205;-73
2023/07/27 00:13:58;;;;;;;;;;;;;;;;;;5112101;28;20039;-72
2023/07/27 00:16:25;;;;;;;;;;;;;;;;;;5113252;28;20014;-74
2023/07/27 00:18:52;;;;;;;;;;;;;;;;;;5111875;28;20023;-72
2023/07/27 00:21:19;;;;;;;;;;;;;;;;;;5123174;28;20018;-73
2023/07/27 00:23:46;;;;;;;;;;;;;;;;;;5113056;28;19959;-72
2023/07/27 00:26:13;;;;;;;;;;;;;;;;;;5113547;28;19975;-72
2023/07/27 00:28:40;;;;;;;;;;;;;;;;;;5133473;28;19977;-72
2023/07/27 00:31:07;;;;;;;;;;;;;;;;;;5133518;28;20022;-72
2023/07/27 00:33:33;;;;;;;;;;;;;;;;;;5132350;27;19936;-72
2023/07/27 00:36:00;;;;;;;;;;;;;;;;;;5133398;28;19930;-72
2023/07/27 00:38:27;;;;;;;;;;;;;;;;;;5133387;28;20278;-73
2023/07/27 00:40:54;;;;;;;;;;;;;;;;;;5133162;28;20341;-73
2023/07/27 00:43:21;;;;;;;;;;;;;;;;;;5130745;28;19954;-73
2023/07/27 00:45:48;;;;;;;;;;;;;;;;;;5112160;28;20011;-73
2023/07/27 00:48:15;;;;;;;;;;;;;;;;;;5112517;28;19928;-73
2023/07/27 00:50:42;;;;;;;;;;;;;;;;;;5110719;28;19992;-73
2023/07/27 00:53:09;;;;;;;;;;;;;;;;;;5112643;28;20470;-73
2023/07/27 00:55:36;;;;;;;;;;;;;;;;;;5133084;28;19971;-73
2023/07/27 00:58:03;;;;;;;;;;;;;;;;;;5112638;28;20014;-73
2023/07/27 01:00:31;;;;;;;;;;;;;;;;;;5112116;28;19927;-73
2023/07/27 01:02:58;;;;;;;;;;;;;;;;;;5111543;28;19928;-73
2023/07/27 01:05:25;;;;;;;;;;;;;;;;;;5112266;28;19924;-73
2023/07/27 01:07:52;;;;;;;;;;;;;;;;;;5112955;28;20353;-73
2023/07/27 01:10:19;;;;;;;;;;;;;;;;;;5132429;28;20026;-73
2023/07/27 01:12:46;;;;;;;;;;;;;;;;;;5114339;28;20026;-73
2023/07/27 01:15:12;;;;;;;;;;;;;;;;;;5115903;27;19966;-73
2023/07/27 01:17:39;;;;;;;;;;;;;;;;;;5125821;27;19924;-73
2023/07/27 01:20:05;;;;;;;;;;;;;;;;;;5129263;27;19969;-73
2023/07/27 01:22:32;;;;;;;;;;;;;;;;;;5125621;27;19927;-73
2023/07/27 01:24:59;;;;;;;;;;;;;;;;;;5115620;28;20022;-72
2023/07/27 01:27:26;;;;;;;;;;;;;;;;;;5115622;28;19978;-72
2023/07/27 01:29:52;;;;;;;;;;;;;;;;;;5115724;28;19962;-72
2023/07/27 01:32:19;;;;;;;;;;;;;;;;;;5116812;27;20397;-73
2023/07/27 01:34:46;;;;;;;;;;;;;;;;;;5121151;27;19968;-72
2023/07/27 01:37:13;;;;;;;;;;;;;;;;;;5136437;27;20014;-71
2023/07/27 01:39:40;;;;;;;;;;;;;;;;;;5136428;27;19968;-72
2023/07/27 01:42:08;;;;;;;;;;;;;;;;;;5134670;27;19930;-71
2023/07/27 01:44:35;;;;;;;;;;;;;;;;;;5135892;27;19924;-71
2023/07/27 01:47:02;;;;;;;;;;;;;;;;;;5133603;27;19946;-72
2023/07/27 01:49:29;;;;;;;;;;;;;;;;;;5135268;27;19976;-72
2023/07/27 01:51:56;;;;;;;;;;;;;;;;;;5134393;27;20378;-72
2023/07/27 01:54:23;;;;;;;;;;;;;;;;;;5125953;27;20328;-72
2023/07/27 01:56:50;;;;;;;;;;;;;;;;;;5114877;27;20360;-72
2023/07/27 01:59:17;;;;;;;;;;;;;;;;;;5126565;27;20023;-73
2023/07/27 02:01:44;;;;;;;;;;;;;;;;;;5132877;27;19967;-72
2023/07/27 02:04:11;;;;;;;;;;;;;;;;;;5115779;27;20027;-73
2023/07/27 02:06:38;;;;;;;;;;;;;;;;;;5115191;28;20113;-73
2023/07/27 02:09:05;;;;;;;;;;;;;;;;;;5112895;28;19963;-72
2023/07/27 02:11:32;;;;;;;;;;;;;;;;;;5114434;28;20383;-72
2023/07/27 02:13:59;;;;;;;;;;;;;;;;;;5114754;28;19951;-72
2023/07/27 02:16:26;;;;;;;;;;;;;;;;;;5114404;28;20018;-72
2023/07/27 02:18:53;;;;;;;;;;;;;;;;;;5128972;27;20302;-72
2023/07/27 02:21:20;;;;;;;;;;;;;;;;;;5131000;27;20042;-73
2023/07/27 02:23:47;;;;;;;;;;;;;;;;;;5123691;27;20018;-72
2023/07/27 02:26:14;;;;;;;;;;;;;;;;;;5115223;27;20328;-71
2023/07/27 02:28:41;;;;;;;;;;;;;;;;;;5116480;27;19959;-72
2023/07/27 02:31:08;;;;;;;;;;;;;;;;;;5132645;27;19923;-71
2023/07/27 02:33:35;;;;;;;;;;;;;;;;;;5127365;27;19924;-71
2023/07/27 02:36:02;;;;;;;;;;;;;;;;;;5126597;27;19924;-72
2023/07/27 02:38:28;;;;;;;;;;;;;;;;;;5121667;27;19930;-72
2023/07/27 02:40:55;;;;;;;;;;;;;;;;;;5128198;27;19974;-72
2023/07/27 02:43:22;;;;;;;;;;;;;;;;;;5121502;27;19928;-72
2023/07/27 02:45:49;;;;;;;;;;;;;;;;;;5115392;27;19924;-71
2023/07/27 02:48:17;;;;;;;;;;;;;;;;;;5132106;27;20013;-72
2023/07/27 02:50:44;;;;;;;;;;;;;;;;;;5124857;27;19946;-72
2023/07/27 02:53:11;;;;;;;;;;;;;;;;;;5116917;27;19975;-71
2023/07/27 02:55:37;;;;;;;;;;;;;;;;;;5123067;27;20339;-72
2023/07/27 02:58:05;;;;;;;;;;;;;;;;;;5114483;27;20014;-73
2023/07/27 03:00:32;;;;;;;;;;;;;;;;;;5122022;27;19924;-72
2023/07/27 03:03:00;;;;;;;;;;;;;;;;;;5128702;27;20570;-72
2023/07/27 03:05:27;;;;;;;;;;;;;;;;;;5134503;27;19923;-70
2023/07/27 03:07:54;;;;;;;;;;;;;;;;;;5129311;27;19981;-71
2023/07/27 03:10:21;;;;;;;;;;;;;;;;;;5114009;28;20010;-71
2023/07/27 03:12:49;;;;;;;;;;;;;;;;;;5113832;28;20027;-71
2023/07/27 03:15:16;;;;;;;;;;;;;;;;;;5113755;28;19931;-71
2023/07/27 03:17:43;;;;;;;;;;;;;;;;;;5116197;27;20666;-71
2023/07/27 03:20:10;;;;;;;;;;;;;;;;;;5113643;28;19989;-71
2023/07/27 03:22:37;;;;;;;;;;;;;;;;;;5113206;28;20007;-71
2023/07/27 03:25:04;;;;;;;;;;;;;;;;;;5113655;28;19977;-72
2023/07/27 03:27:31;;;;;;;;;;;;;;;;;;5120021;27;19974;-72
2023/07/27 03:29:58;;;;;;;;;;;;;;;;;;5120335;27;20014;-71
2023/07/27 03:32:25;;;;;;;;;;;;;;;;;;5132377;27;19984;-71
2023/07/27 03:34:52;;;;;;;;;;;;;;;;;;5132259;27;19927;-72
2023/07/27 03:37:19;;;;;;;;;;;;;;;;;;5127201;27;19930;-72
2023/07/27 03:39:45;;;;;;;;;;;;;;;;;;5112884;28;20365;-71
2023/07/27 03:42:12;;;;;;;;;;;;;;;;;;5112754;28;20014;-72
2023/07/27 03:44:39;;;;;;;;;;;;;;;;;;5116706;27;20018;-71
2023/07/27 03:47:06;;;;;;;;;;;;;;;;;;5131364;27;19923;-71
2023/07/27 03:49:33;;;;;;;;;;;;;;;;;;5133756;27;20010;-72
2023/07/27 03:52:00;;;;;;;;;;;;;;;;;;5116819;27;19924;-70
2023/07/27 03:54:27;;;;;;;;;;;;;;;;;;5124660;27;20010;-72
2023/07/27 03:56:54;;;;;;;;;;;;;;;;;;5133579;27;19959;-72
2023/07/27 03:59:21;;;;;;;;;;;;;;;;;;5119353;27;20019;-72
2023/07/27 04:01:48;;;;;;;;;;;;;;;;;;5116040;27;20022;-72
2023/07/27 04:04:15;;;;;;;;;;;;;;;;;;5111856;28;19923;-73
2023/07/27 04:06:42;;;;;;;;;;;;;;;;;;5112570;28;20394;-73
2023/07/27 04:09:09;;;;;;;;;;;;;;;;;;5112830;28;19928;-73
2023/07/27 04:11:36;;;;;;;;;;;;;;;;;;5113253;28;20034;-73
2023/07/27 04:14:03;;;;;;;;;;;;;;;;;;5112368;28;20015;-73
2023/07/27 04:16:30;;;;;;;;;;;;;;;;;;5113044;28;20007;-73
2023/07/27 04:18:57;;;;;;;;;;;;;;;;;;5115128;28;19923;-73
2023/07/27 04:21:24;;;;;;;;;;;;;;;;;;5116697;28;19963;-73
2023/07/27 04:23:51;;;;;;;;;;;;;;;;;;5133833;28;19924;-73
2023/07/27 04:26:18;;;;;;;;;;;;;;;;;;5114886;28;19988;-72
2023/07/27 04:28:45;;;;;;;;;;;;;;;;;;5112399;28;20014;-75
2023/07/27 04:31:12;;;;;;;;;;;;;;;;;;5123273;28;19969;-73
2023/07/27 04:33:39;;;;;;;;;;;;;;;;;;5114413;28;19923;-73
2023/07/27 04:36:06;;;;;;;;;;;;;;;;;;5112764;28;19971;-73
2023/07/27 04:38:33;;;;;;;;;;;;;;;;;;5112905;28;19979;-72
2023/07/27 04:41:00;;;;;;;;;;;;;;;;;;5112844;28;20010;-72
2023/07/27 04:43:26;;;;;;;;;;;;;;;;;;5130775;28;19923;-72
2023/07/27 04:45:53;;;;;;;;;;;;;;;;;;5133317;27;19930;-72
2023/07/27 04:48:20;;;;;;;;;;;;;;;;;;5121644;27;19928;-73
2023/07/27 04:50:48;;;;;;;;;;;;;;;;;;5116600;28;20294;-71
2023/07/27 04:53:15;;;;;;;;;;;;;;;;;;5119040;27;19931;-72
2023/07/27 04:55:42;;;;;;;;;;;;;;;;;;5137120;27;20022;-72
2023/07/27 04:58:10;;;;;;;;;;;;;;;;;;5135517;27;20006;-71
2023/07/27 05:00:36;;;;;;;;;;;;;;;;;;5132226;27;20354;-72
2023/07/27 05:03:03;;;;;;;;;;;;;;;;;;5125642;27;19924;-71
2023/07/27 05:05:30;;;;;;;;;;;;;;;;;;5129667;27;19959;-72
2023/07/27 05:07:57;;;;;;;;;;;;;;;;;;5131629;27;19930;-72
2023/07/27 05:10:24;;;;;;;;;;;;;;;;;;5135954;27;20018;-71
2023/07/27 05:12:51;;;;;;;;;;;;;;;;;;5131641;27;20357;-71
2023/07/27 05:15:18;;;;;;;;;;;;;;;;;;5117171;27;20397;-72
2023/07/27 05:17:45;;;;;;;;;;;;;;;;;;5130052;27;20361;-72
2023/07/27 05:20:12;;;;;;;;;;;;;;;;;;5116446;28;20323;-72
2023/07/27 05:22:39;;;;;;;;;;;;;;;;;;5133272;27;19955;-73
2023/07/27 05:25:08;;;;;;;;;;;;;;;;;;5131042;27;20014;-72
2023/07/27 05:27:35;;;;;;;;;;;;;;;;;;5135821;27;19923;-71
2023/07/27 05:30:02;;;;;;;;;;;;;;;;;;5136294;27;19927;-72
2023/07/27 05:32:29;;;;;;;;;;;;;;;;;;5117266;27;19927;-72
2023/07/27 05:34:55;;;;;;;;;;;;;;;;;;5131423;27;20006;-71
2023/07/27 05:37:22;;;;;;;;;;;;;;;;;;5122338;27;19930;-71
2023/07/27 05:39:49;;;;;;;;;;;;;;;;;;5115436;28;20026;-71
2023/07/27 05:42:16;;;;;;;;;;;;;;;;;;5114758;27;20002;-70
2023/07/27 05:44:43;;;;;;;;;;;;;;;;;;5129495;27;20007;-71
2023/07/27 05:47:10;;;;;;;;;;;;;;;;;;5124877;27;20402;-71
2023/07/27 05:49:37;;;;;;;;;;;;;;;;;;5124833;27;20473;-72
2023/07/27 05:52:04;;;;;;;;;;;;;;;;;;5127292;27;20380;-71
2023/07/27 05:54:31;;;;;;;;;;;;;;;;;;5136069;27;20357;-71
2023/07/27 05:56:58;;;;;;;;;;;;;;;;;;5135871;27;19927;-72
2023/07/27 05:59:25;;;;;;;;;;;;;;;;;;5133796;27;20891;-71
2023/07/27 06:01:52;;;;;;;;;;;;;;;;;;5134139;27;20473;-72
2023/07/27 06:04:20;;;;;;;;;;;;;;;;;;5125262;27;19930;-72
2023/07/27 06:06:47;;;;;;;;;;;;;;;;;;5115934;27;19952;-72
2023/07/27 06:09:14;;;;;;;;;;;;;;;;;;5115974;27;19977;-71
2023/07/27 06:11:41;;;;;;;;;;;;;;;;;;5135305;27;19928;-71
2023/07/27 06:14:08;;;;;;;;;;;;;;;;;;5135629;27;19923;-70
2023/07/27 06:16:35;;;;;;;;;;;;;;;;;;5135400;27;19969;-72
2023/07/27 06:19:02;;;;;;;;;;;;;;;;;;5129694;27;19955;-71
2023/07/27 06:21:29;;;;;;;;;;;;;;;;;;5132500;27;20014;-71
2023/07/27 06:23:56;;;;;;;;;;;;;;;;;;5126998;27;19974;-72
2023/07/27 06:26:23;;;;;;;;;;;;;;;;;;5125506;27;20256;-72
2023/07/27 06:28:50;;;;;;;;;;;;;;;;;;5134033;27;19931;-71
2023/07/27 06:31:17;;;;;;;;;;;;;;;;;;5128700;27;19969;-72
2023/07/27 06:33:44;;;;;;;;;;;;;;;;;;5115872;27;19927;-72
2023/07/27 06:36:11;;;;;;;;;;;;;;;;;;5134178;27;19939;-71
2023/07/27 06:38:38;;;;;;;;;;;;;;;;;;5134783;27;19931;-72
2023/07/27 06:41:06;;;;;;;;;;;;;;;;;;5132640;27;19973;-72
2023/07/27 06:43:33;;;;;;;;;;;;;;;;;;5134916;27;19923;-72
2023/07/27 06:45:59;;;;;;;;;;;;;;;;;;5123207;27;20361;-72
2023/07/27 06:48:26;;;;;;;;;;;;;;;;;;5114042;27;20934;-72
2023/07/27 06:50:53;;;;;;;;;;;;;;;;;;5112975;27;20374;-72
2023/07/27 06:53:20;;;;;;;;;;;;;;;;;;5124095;27;19935;-72
2023/07/27 06:55:47;;;;;;;;;;;;;;;;;;5125456;27;19976;-72
2023/07/27 06:58:14;;;;;;;;;;;;;;;;;;5124080;27;20022;-72
2023/07/27 07:00:41;;;;;;;;;;;;;;;;;;5127519;27;19978;-81
2023/07/27 07:03:08;;;;;;;;;;;;;;;;;;5125610;27;20010;-83
2023/07/27 07:05:36;;;;;;;;;;;;;;;;;;5134665;27;19977;-82
2023/07/27 07:08:03;;;;;;;;;;;;;;;;;;5135025;27;19930;-80
2023/07/27 07:10:30;;;;;;;;;;;;;;;;;;5132596;27;20010;-79
2023/07/27 07:12:57;;;;;;;;;;;;;;;;;;5114222;28;19931;-83
2023/07/27 07:15:24;;;;;;;;;;;;;;;;;;5114528;27;19923;-71
2023/07/27 07:17:51;;;;;;;;;;;;;;;;;;5113615;28;19924;-70
2023/07/27 07:20:18;;;;;;;;;;;;;;;;;;5122260;27;20449;-74
2023/07/27 07:22:45;;;;;;;;;;;;;;;;;;5130960;27;20414;-75
2023/07/27 07:25:12;;;;;;;;;;;;;;;;;;5122465;27;19927;-74
2023/07/27 07:27:39;;;;;;;;;;;;;;;;;;5134165;27;20023;-75
2023/07/27 07:30:06;;;;;;;;;;;;;;;;;;5131112;27;20355;-76
2023/07/27 07:32:34;;;;;;;;;;;;;;;;;;5122629;27;20010;-68
2023/07/27 07:35:01;;;;;;;;;;;;;;;;;;5132085;27;19923;-74
2023/07/27 07:37:28;;;;;;;;;;;;;;;;;;5133869;27;20276;-74
2023/07/27 07:39:55;;;;;;;;;;;;;;;;;;5127204;27;20041;-74
2023/07/27 07:42:22;;;;;;;;;;;;;;;;;;5132615;27;20010;-72
2023/07/27 07:44:49;;;;;;;;;;;;;;;;;;5115293;27;19934;-75
2023/07/27 07:47:16;;;;;;;;;;;;;;;;;;5116183;27;20011;-74
2023/07/27 07:49:43;;;;;;;;;;;;;;;;;;5121191;27;20014;-75
2023/07/27 07:52:10;;;;;;;;;;;;;;;;;;5109774;27;19923;-76
2023/07/27 07:54:37;;;;;;;;;;;;;;;;;;5123720;27;19971;-74
2023/07/27 07:57:04;;;;;;;;;;;;;;;;;;5118827;27;20015;-75
2023/07/27 07:59:31;;;;;;;;;;;;;;;;;;5121620;27;19924;-74
2023/07/27 08:01:58;;;;;;;;;;;;;;;;;;5120233;27;19924;-74
2023/07/27 08:04:25;;;;;;;;;;;;;;;;;;5128363;27;20002;-75
2023/07/27 08:06:52;;;;;;;;;;;;;;;;;;5124130;27;20022;-76
2023/07/27 08:09:19;;;;;;;;;;;;;;;;;;5120739;27;20015;-73
2023/07/27 08:11:46;;;;;;;;;;;;;;;;;;5126290;27;19924;-71
2023/07/27 08:14:13;;;;;;;;;;;;;;;;;;5116939;28;20000;-71
2023/07/27 08:16:40;;;;;;;;;;;;;;;;;;5115380;28;19927;-71
2023/07/27 08:19:07;;;;;;;;;;;;;;;;;;5122029;28;19930;-71
2023/07/27 08:21:34;;;;;;;;;;;;;;;;;;5124664;27;20014;-71
2023/07/27 08:24:01;;;;;;;;;;;;;;;;;;5118527;28;20387;-71
2023/07/27 08:26:29;;;;;;;;;;;;;;;;;;5119239;28;20458;-72
2023/07/27 08:28:57;;;;;;;;;;;;;;;;;;5112837;28;19923;-70
2023/07/27 08:31:23;;;;;;;;;;;;;;;;;;5114220;28;20359;-71
2023/07/27 08:33:50;;;;;;;;;;;;;;;;;;5113560;28;20026;-73
2023/07/27 08:36:17;;;;;;;;;;;;;;;;;;5117277;28;20013;-74
2023/07/27 08:38:44;;;;;;;;;;;;;;;;;;5115455;28;19955;-72
2023/07/27 08:41:11;;;;;;;;;;;;;;;;;;5117752;28;19923;-72
2023/07/27 08:43:38;;;;;;;;;;;;;;;;;;5126700;28;19924;-72
2023/07/27 08:46:05;;;;;;;;;;;;;;;;;;5118123;27;19930;-71
2023/07/27 08:48:32;;;;;;;;;;;;;;;;;;5110866;28;19931;-72
2023/07/27 08:50:59;;;;;;;;;;;;;;;;;;5116058;27;19927;-72
2023/07/27 08:53:26;;;;;;;;;;;;;;;;;;5122060;28;20010;-72
2023/07/27 08:55:53;;;;;;;;;;;;;;;;;;5114123;28;20003;-72
2023/07/27 08:58:21;;;;;;;;;;;;;;;;;;5118810;28;19931;-71
2023/07/27 09:00:48;;;;;;;;;;;;;;;;;;5115822;28;19923;-71
2023/07/27 09:03:15;;;;;;;;;;;;;;;;;;5113171;28;20006;-72
2023/07/27 09:05:42;;;;;;;;;;;;;;;;;;5114137;28;19924;-72
2023/07/27 09:08:09;;;;;;;;;;;;;;;;;;5116639;28;19988;-76
2023/07/27 09:10:35;;;;;;;;;;;;;;;;;;5109295;28;19924;-75
2023/07/27 09:13:02;;;;;;;;;;;;;;;;;;5116140;28;19928;-74
2023/07/27 09:15:29;;;;;;;;;;;;;;;;;;5120932;28;20026;-74
2023/07/27 09:17:58;;;;;;;;;;;;;;;;;;5115547;28;19930;-74
2023/07/27 09:20:25;;;;;;;;;;;;;;;;;;5114191;28;20376;-75
2023/07/27 09:22:52;;;;;;;;;;;;;;;;;;5117419;28;20449;-75
2023/07/27 09:25:19;;;;;;;;;;;;;;;;;;5132262;28;19923;-74
2023/07/27 09:27:46;;;;;;;;;;;;;;;;;;5124904;28;20019;-74
2023/07/27 09:30:13;;;;;;;;;;;;;;;;;;5119737;28;20409;-75
2023/07/27 09:32:40;;;;;;;;;;;;;;;;;;5119416;28;19994;-74
2023/07/27 09:35:07;;;;;;;;;;;;;;;;;;5119030;27;19956;-73
2023/07/27 09:37:34;;;;;;;;;;;;;;;;;;5114028;27;20370;-75
2023/07/27 09:40:01;;;;;;;;;;;;;;;;;;5113026;27;19955;-75
2023/07/27 09:42:28;;;;;;;;;;;;;;;;;;5120203;27;19929;-75
2023/07/27 09:44:55;;;;;;;;;;;;;;;;;;5130370;27;19923;-75
2023/07/27 09:47:23;;;;;;;;;;;;;;;;;;5116312;27;20023;-75
2023/07/27 09:49:51;;;;;;;;;;;;;;;;;;5129694;27;19930;-75
2023/07/27 09:52:19;;;;;;;;;;;;;;;;;;5136065;27;19973;-75
2023/07/27 09:54:46;;;;;;;;;;;;;;;;;;5134199;27;19931;-74
2023/07/27 09:57:13;;;;;;;;;;;;;;;;;;5133810;27;20014;-76
2023/07/27 09:59:40;;;;;;;;;;;;;;;;;;5119209;27;19971;-76
2023/07/27 10:02:07;;;;;;;;;;;;;;;;;;5117892;27;19923;-76
2023/07/27 10:04:34;;;;;;;;;;;;;;;;;;5129449;27;20018;-75
2023/07/27 10:07:01;;;;;;;;;;;;;;;;;;5115679;27;20023;-75
2023/07/27 10:09:28;;;;;;;;;;;;;;;;;;5114177;28;19924;-75
2023/07/27 10:11:55;;;;;;;;;;;;;;;;;;5114412;28;20014;-74
2023/07/27 10:14:22;;;;;;;;;;;;;;;;;;5115729;27;19931;-75
2023/07/27 10:16:49;;;;;;;;;;;;;;;;;;5117235;27;20014;-75
2023/07/27 10:19:16;;;;;;;;;;;;;;;;;;5112698;27;19923;-74
2023/07/27 10:21:43;;;;;;;;;;;;;;;;;;5117350;27;19928;-73
2023/07/27 10:24:10;;;;;;;;;;;;;;;;;;5119437;27;19962;-74
2023/07/27 10:26:36;;;;;;;;;;;;;;;;;;5127286;27;20002;-72
2023/07/27 10:29:03;;;;;;;;;;;;;;;;;;5128845;27;19971;-75
2023/07/27 10:31:30;;;;;;;;;;;;;;;;;;5131702;27;19936;-75
2023/07/27 10:33:56;;;;;;;;;;;;;;;;;;5114314;27;20011;-75
2023/07/27 10:36:24;;;;;;;;;;;;;;;;;;5114412;27;19967;-76
2023/07/27 10:38:52;;;;;;;;;;;;;;;;;;5120256;27;19930;-75
2023/07/27 10:41:19;;;;;;;;;;;;;;;;;;5121133;27;20007;-75
2023/07/27 10:43:46;;;;;;;;;;;;;;;;;;5112949;27;19955;-74
2023/07/27 10:46:13;;;;;;;;;;;;;;;;;;5110103;27;20219;-74
2023/07/27 10:48:40;;;;;;;;;;;;;;;;;;5116017;27;20019;-74
2023/07/27 10:51:07;;;;;;;;;;;;;;;;;;5108613;22;19931;-75
2023/07/27 10:53:34;;;;;;;;;;;;;;;;;;5091639;28;20027;-75
2023/07/27 10:56:01;;;;;;;;;;;;;;;;;;5093884;28;19985;-75
2023/07/27 10:58:28;;;;;;;;;;;;;;;;;;5090147;28;19924;-75
2023/07/27 11:00:55;;;;;;;;;;;;;;;;;;5087957;28;19924;-74
2023/07/27 11:03:22;;;;;;;;;;;;;;;;;;5092283;28;19960;-74
2023/07/27 11:05:49;;;;;;;;;;;;;;;;;;5086647;28;20446;-75
2023/07/27 11:08:16;;;;;;;;;;;;;;;;;;5089116;28;20280;-75
2023/07/27 11:10:43;;;;;;;;;;;;;;;;;;5090916;28;19952;-74
2023/07/27 11:13:10;;;;;;;;;;;;;;;;;;5088252;28;20014;-74
2023/07/27 11:15:37;;;;;;;;;;;;;;;;;;5089109;28;20007;-74
2023/07/27 11:18:04;;;;;;;;;;;;;;;;;;5088384;28;19971;-75
2023/07/27 11:20:31;;;;;;;;;;;;;;;;;;5085770;28;20220;-75
2023/07/27 11:22:58;;;;;;;;;;;;;;;;;;5092062;28;20015;-74
2023/07/27 11:25:25;;;;;;;;;;;;;;;;;;5091085;28;19978;-75
2023/07/27 11:27:52;;;;;;;;;;;;;;;;;;5088964;28;19931;-74
2023/07/27 11:30:21;;;;;;;;;;;;;;;;;;5079238;28;20019;-75
2023/07/27 11:32:48;;;;;;;;;;;;;;;;;;5087192;28;20391;-74
2023/07/27 11:35:15;;;;;;;;;;;;;;;;;;5092870;28;19985;-75
2023/07/27 11:37:42;;;;;;;;;;;;;;;;;;5091147;28;19956;-75
2023/07/27 11:40:09;;;;;;;;;;;;;;;;;;5087577;28;20276;-74
2023/07/27 11:42:36;;;;;;;;;;;;;;;;;;5087195;28;19924;-74
2023/07/27 11:45:03;;;;;;;;;;;;;;;;;;5083414;28;19932;-74
2023/07/27 11:47:30;;;;;;;;;;;;;;;;;;5092356;28;19925;-74
2023/07/27 11:49:57;;;;;;;;;;;;;;;;;;5090557;28;20039;-77
2023/07/27 11:52:24;;;;;;;;;;;;;;;;;;5084025;28;20018;-74
2023/07/27 11:54:51;;;;;;;;;;;;;;;;;;5090300;28;19924;-73
2023/07/27 11:57:18;;;;;;;;;;;;;;;;;;5084050;28;20040;-74
2023/07/27 11:59:45;;;;;;;;;;;;;;;;;;5088903;28;19971;-73
2023/07/27 12:02:13;;;;;;;;;;;;;;;;;;5089567;28;20390;-75
2023/07/27 12:04:40;;;;;;;;;;;;;;;;;;5093205;28;20355;-72
2023/07/27 12:07:07;;;;;;;;;;;;;;;;;;5084679;28;19928;-72
2023/07/27 12:09:34;;;;;;;;;;;;;;;;;;5090140;28;20018;-72
2023/07/27 12:12:01;;;;;;;;;;;;;;;;;;5080220;28;19924;-72
2023/07/27 12:14:28;;;;;;;;;;;;;;;;;;5087082;28;19924;-72
2023/07/27 12:16:55;;;;;;;;;;;;;;;;;;5083960;28;19932;-73
2023/07/27 12:19:22;;;;;;;;;;;;;;;;;;5080861;28;19942;-73
2023/07/27 12:21:49;;;;;;;;;;;;;;;;;;5087944;28;19970;-72
2023/07/27 12:24:16;;;;;;;;;;;;;;;;;;5081770;28;19978;-72
2023/07/27 12:26:43;;;;;;;;;;;;;;;;;;5089143;28;20026;-72
2023/07/27 12:29:10;;;;;;;;;;;;;;;;;;5090143;28;20471;-72
2023/07/27 12:31:37;;;;;;;;;;;;;;;;;;5085166;28;19974;-72
2023/07/27 12:34:04;;;;;;;;;;;;;;;;;;5088370;28;19947;-73
2023/07/27 12:36:32;;;;;;;;;;;;;;;;;;5089108;28;19997;-72
2023/07/27 12:38:59;;;;;;;;;;;;;;;;;;5087273;28;20424;-73
2023/07/27 12:41:26;;;;;;;;;;;;;;;;;;5082469;28;19925;-73
2023/07/27 12:43:55;;;;;;;;;;;;;;;;;;5089392;28;20310;-72
2023/07/27 12:46:22;;;;;;;;;;;;;;;;;;5091713;28;20390;-73
2023/07/27 12:48:49;;;;;;;;;;;;;;;;;;5092028;28;19924;-73
2023/07/27 12:51:15;;;;;;;;;;;;;;;;;;5083467;28;20027;-73
2023/07/27 12:53:42;;;;;;;;;;;;;;;;;;5085436;28;19924;-72
2023/07/27 12:56:11;;;;;;;;;;;;;;;;;;5086723;28;20484;-73
2023/07/27 12:58:38;;;;;;;;;;;;;;;;;;5080023;28;19944;-73
2023/07/27 13:01:05;;;;;;;;;;;;;;;;;;5088024;28;19955;-73
2023/07/27 13:03:32;;;;;;;;;;;;;;;;;;5083096;28;20027;-73
2023/07/27 13:06:00;;;;;;;;;;;;;;;;;;5078147;28;19962;-73
2023/07/27 13:08:27;;;;;;;;;;;;;;;;;;5084893;28;19987;-73
2023/07/27 13:10:54;;;;;;;;;;;;;;;;;;5087814;28;20027;-73
2023/07/27 13:13:21;;;;;;;;;;;;;;;;;;5091447;28;19924;-73
2023/07/27 13:15:48;;;;;;;;;;;;;;;;;;5095509;28;20023;-73
2023/07/27 13:18:15;;;;;;;;;;;;;;;;;;5087891;28;19924;-73
2023/07/27 13:20:42;;;;;;;;;;;;;;;;;;5089959;28;19936;-73
2023/07/27 13:23:09;;;;;;;;;;;;;;;;;;5085180;28;19924;-74
2023/07/27 13:25:37;;;;;;;;;;;;;;;;;;5090476;28;19924;-73
2023/07/27 13:28:04;;;;;;;;;;;;;;;;;;5095022;28;20382;-74
2023/07/27 13:30:31;;;;;;;;;;;;;;;;;;5094538;28;19994;-73
2023/07/27 13:32:58;;;;;;;;;;;;;;;;;;5092846;28;19924;-73
2023/07/27 13:35:25;;;;;;;;;;;;;;;;;;5087552;28;19967;-73
2023/07/27 13:37:52;;;;;;;;;;;;;;;;;;5092909;28;20043;-74
2023/07/27 13:40:19;;;;;;;;;;;;;;;;;;5092327;28;20011;-74
2023/07/27 13:42:47;;;;;;;;;;;;;;;;;;5093249;28;20014;-74
2023/07/27 13:45:14;;;;;;;;;;;;;;;;;;5094194;28;20019;-75
2023/07/27 13:47:40;;;;;;;;;;;;;;;;;;5090395;28;19928;-75
2023/07/27 13:50:08;;;;;;;;;;;;;;;;;;5094557;28;20337;-74
2023/07/27 13:52:35;;;;;;;;;;;;;;;;;;5092793;28;19931;-74
2023/07/27 13:55:04;;;;;;;;;;;;;;;;;;5094207;28;20448;-74
2023/07/27 13:57:31;;;;;;;;;;;;;;;;;;5093888;28;19970;-75
2023/07/27 14:00:00;;;;;;;;;;;;;;;;;;5093954;28;19932;-75
2023/07/27 14:02:27;;;;;;;;;;;;;;;;;;5090917;28;19969;-76
2023/07/27 14:04:54;;;;;;;;;;;;;;;;;;5084678;28;19935;-78
2023/07/27 14:07:21;;;;;;;;;;;;;;;;;;5091152;28;19935;-77
2023/07/27 14:09:49;;;;;;;;;;;;;;;;;;5094854;28;19930;-76
2023/07/27 14:12:16;;;;;;;;;;;;;;;;;;5094966;28;19931;-78
2023/07/27 14:14:42;;;;;;;;;;;;;;;;;;5094996;28;20022;-77
2023/07/27 14:17:09;;;;;;;;;;;;;;;;;;5088538;28;20011;-77
2023/07/27 14:19:37;;;;;;;;;;;;;;;;;;5079399;28;20026;-76
2023/07/27 14:22:04;;;;;;;;;;;;;;;;;;5094462;28;20290;-77
2023/07/27 14:24:31;;;;;;;;;;;;;;;;;;5093790;28;19963;-76
2023/07/27 14:26:58;;;;;;;;;;;;;;;;;;5095164;28;19999;-77
2023/07/27 14:29:26;;;;;;;;;;;;;;;;;;5089922;28;20019;-76
2023/07/27 14:31:53;;;;;;;;;;;;;;;;;;5090423;28;19924;-77
2023/07/27 14:34:19;;;;;;;;;;;;;;;;;;5088031;28;19942;-78
2023/07/27 14:36:47;;;;;;;;;;;;;;;;;;5094559;28;19931;-77
2023/07/27 14:39:14;;;;;;;;;;;;;;;;;;5093261;28;19924;-77
2023/07/27 14:41:41;;;;;;;;;;;;;;;;;;5091076;28;21066;-76
2023/07/27 14:44:08;;;;;;;;;;;;;;;;;;5091564;28;20375;-75
2023/07/27 14:46:35;;;;;;;;;;;;;;;;;;5089614;28;20390;-78
2023/07/27 14:49:02;;;;;;;;;;;;;;;;;;5081309;28;20031;-77
2023/07/27 14:51:29;;;;;;;;;;;;;;;;;;5082394;28;19960;-76
2023/07/27 14:53:56;;;;;;;;;;;;;;;;;;5091062;28;19935;-76
2023/07/27 14:56:24;;;;;;;;;;;;;;;;;;5089083;28;19934;-76
2023/07/27 14:58:51;;;;;;;;;;;;;;;;;;5088086;28;19996;-75
2023/07/27 15:01:18;;;;;;;;;;;;;;;;;;5086388;28;20306;-77
2023/07/27 15:03:45;;;;;;;;;;;;;;;;;;5086773;28;19924;-77
2023/07/27 15:06:12;;;;;;;;;;;;;;;;;;5088094;28;20386;-77
2023/07/27 15:08:39;;;;;;;;;;;;;;;;;;5092749;28;19966;-76
2023/07/27 15:11:06;;;;;;;;;;;;;;;;;;5093545;28;19931;-76
2023/07/27 15:13:33;;;;;;;;;;;;;;;;;;5092830;28;19924;-78
2023/07/27 15:16:00;;;;;;;;;;;;;;;;;;5086449;28;19928;-78
2023/07/27 15:18:27;;;;;;;;;;;;;;;;;;5088533;28;19959;-76
2023/07/27 15:20:54;;;;;;;;;;;;;;;;;;5090999;28;20018;-77
2023/07/27 15:23:21;;;;;;;;;;;;;;;;;;5090713;28;19928;-77
2023/07/27 15:25:48;;;;;;;;;;;;;;;;;;5090071;28;19924;-77
2023/07/27 15:28:15;;;;;;;;;;;;;;;;;;5101807;28;19924;-78
2023/07/27 15:30:42;;;;;;;;;;;;;;;;;;5085682;28;20015;-77
2023/07/27 15:33:09;;;;;;;;;;;;;;;;;;5092505;28;19974;-78
2023/07/27 15:35:36;;;;;;;;;;;;;;;;;;5092588;28;20019;-78
2023/07/27 15:38:04;;;;;;;;;;;;;;;;;;5091562;28;19963;-77
2023/07/27 15:40:31;;;;;;;;;;;;;;;;;;5091598;28;19947;-77
2023/07/27 15:42:58;;;;;;;;;;;;;;;;;;5089751;28;19970;-76
2023/07/27 15:45:25;;;;;;;;;;;;;;;;;;5094015;28;20015;-77
2023/07/27 15:47:52;;;;;;;;;;;;;;;;;;5089196;28;20349;-80
2023/07/27 15:50:19;;;;;;;;;;;;;;;;;;5087982;28;19969;-82
2023/07/27 15:52:46;;;;;;;;;;;;;;;;;;5091756;28;19967;-82
2023/07/27 15:55:14;;;;;;;;;;;;;;;;;;5089940;28;20011;-81
2023/07/27 15:57:41;;;;;;;;;;;;;;;;;;5092384;28;19924;-81
2023/07/27 16:00:08;;;;;;;;;;;;;;;;;;5090943;28;20011;-80
2023/07/27 16:02:35;;;;;;;;;;;;;;;;;;5088639;28;19924;-80
2023/07/27 16:05:02;;;;;;;;;;;;;;;;;;5092101;28;19967;-82
2023/07/27 16:07:29;;;;;;;;;;;;;;;;;;5084916;28;19924;-83
2023/07/27 16:09:56;;;;;;;;;;;;;;;;;;5089728;28;20023;-82
2023/07/27 16:12:23;;;;;;;;;;;;;;;;;;5090680;28;19970;-81
2023/07/27 16:14:50;;;;;;;;;;;;;;;;;;5087505;28;19924;-82
2023/07/27 16:17:17;;;;;;;;;;;;;;;;;;5073630;28;19925;-81
2023/07/27 16:19:44;;;;;;;;;;;;;;;;;;5092259;28;19924;-81
2023/07/27 16:22:11;;;;;;;;;;;;;;;;;;5091536;28;19970;-82
2023/07/27 16:24:41;;;;;;;;;;;;;;;;;;5089474;28;20063;-81
2023/07/27 16:27:08;;;;;;;;;;;;;;;;;;5090695;28;19924;-80
2023/07/27 16:29:35;;;;;;;;;;;;;;;;;;5084210;28;19930;-81
2023/07/27 16:32:02;;;;;;;;;;;;;;;;;;5081177;28;19931;-81
2023/07/27 16:34:29;;;;;;;;;;;;;;;;;;5081083;28;20009;-81
2023/07/27 16:36:56;;;;;;;;;;;;;;;;;;5088895;28;19939;-81
2023/07/27 16:39:23;;;;;;;;;;;;;;;;;;5089359;28;20003;-81
2023/07/27 16:41:50;;;;;;;;;;;;;;;;;;5089862;28;20018;-81
2023/07/27 16:44:17;;;;;;;;;;;;;;;;;;5095576;28;19977;-79